sensor_id;sensor_type;location;lat;lon;timestamp;pressure;altitude;pressure_sealevel;temperature;humidity
46756;BME280;32506;52.826;-1.192;2023-02-28T00:01:18;102822.78;;;5.90;54.10
46756;BME280;32506;52.826;-1.192;2023-02-28T00:03:43;102826.25;;;5.90;53.86
46756;BME280;32506;52.826;-1.192;2023-02-28T00:06:09;102823.72;;;5.88;53.62
46756;BME280;32506;52.826;-1.192;2023-02-28T00:08:35;102821.91;;;5.89;53.38
46756;BME280;32506;52.826;-1.192;2023-02-28T00:11:06;102820.22;;;5.88;53.89
46756;BME280;32506;52.826;-1.192;2023-02-28T00:13:34;102818.44;;;5.88;53.98
46756;BME280;32506;52.826;-1.192;2023-02-28T00:16:05;102819.38;;;5.87;53.99
46756;BME280;32506;52.826;-1.192;2023-02-28T00:18:32;102820.34;;;5.86;53.80
46756;BME280;32506;52.826;-1.192;2023-02-28T00:20:58;102819.53;;;5.86;53.74
46756;BME280;32506;52.826;-1.192;2023-02-28T00:23:24;102832.06;;;5.84;53.55
46756;BME280;32506;52.826;-1.192;2023-02-28T00:25:51;102828.44;;;5.85;53.22
46756;BME280;32506;52.826;-1.192;2023-02-28T00:28:16;102834.84;;;5.82;53.82
46756;BME280;32506;52.826;-1.192;2023-02-28T00:30:42;102825.31;;;5.80;53.71
46756;BME280;32506;52.826;-1.192;2023-02-28T00:33:08;102820.97;;;5.79;53.40
46756;BME280;32506;52.826;-1.192;2023-02-28T00:35:33;102828.94;;;5.79;53.49
46756;BME280;32506;52.826;-1.192;2023-02-28T00:37:59;102834.38;;;5.77;53.78
46756;BME280;32506;52.826;-1.192;2023-02-28T00:40:24;102832.72;;;5.76;53.67
46756;BME280;32506;52.826;-1.192;2023-02-28T00:42:50;102824.84;;;5.75;53.82
46756;BME280;32506;52.826;-1.192;2023-02-28T00:45:15;102831.97;;;5.74;53.89
46756;BME280;32506;52.826;-1.192;2023-02-28T00:47:41;102825.84;;;5.74;53.68
46756;BME280;32506;52.826;-1.192;2023-02-28T00:50:07;102833.94;;;5.72;53.98
46756;BME280;32506;52.826;-1.192;2023-02-28T00:52:33;102831.28;;;5.72;53.86
46756;BME280;32506;52.826;-1.192;2023-02-28T00:54:59;102834.03;;;5.70;53.85
46756;BME280;32506;52.826;-1.192;2023-02-28T00:57:24;102826.94;;;5.71;54.19
46756;BME280;32506;52.826;-1.192;2023-02-28T00:59:49;102834.03;;;5.70;53.67
46756;BME280;32506;52.826;-1.192;2023-02-28T01:02:15;102841.28;;;5.68;53.67
46756;BME280;32506;52.826;-1.192;2023-02-28T01:04:41;102840.44;;;5.68;53.52
46756;BME280;32506;52.826;-1.192;2023-02-28T01:07:06;102849.25;;;5.68;53.96
46756;BME280;32506;52.826;-1.192;2023-02-28T01:09:32;102844.06;;;5.67;53.55
46756;BME280;32506;52.826;-1.192;2023-02-28T01:11:57;102844.19;;;5.65;53.43
46756;BME280;32506;52.826;-1.192;2023-02-28T01:14:23;102846.84;;;5.65;54.08
46756;BME280;32506;52.826;-1.192;2023-02-28T01:16:48;102845.16;;;5.64;53.87
46756;BME280;32506;52.826;-1.192;2023-02-28T01:19:14;102847.94;;;5.63;53.49
46756;BME280;32506;52.826;-1.192;2023-02-28T01:21:39;102840.94;;;5.62;53.67
46756;BME280;32506;52.826;-1.192;2023-02-28T01:24:05;102841.91;;;5.61;53.85
46756;BME280;32506;52.826;-1.192;2023-02-28T01:26:32;102854.22;;;5.62;54.08
46756;BME280;32506;52.826;-1.192;2023-02-28T01:28:57;102856.88;;;5.62;53.97
46756;BME280;32506;52.826;-1.192;2023-02-28T01:31:23;102855.31;;;5.59;53.64
46756;BME280;32506;52.826;-1.192;2023-02-28T01:33:49;102857.97;;;5.59;53.87
46756;BME280;32506;52.826;-1.192;2023-02-28T01:36:22;102857.13;;;5.59;54.24
46756;BME280;32506;52.826;-1.192;2023-02-28T01:38:49;102855.44;;;5.58;53.64
46756;BME280;32506;52.826;-1.192;2023-02-28T01:41:26;102856.38;;;5.57;54.12
46756;BME280;32506;52.826;-1.192;2023-02-28T01:46:37;102854.56;;;5.57;53.71
46756;BME280;32506;52.826;-1.192;2023-02-28T01:49:11;102856.38;;;5.57;54.43
46756;BME280;32506;52.826;-1.192;2023-02-28T01:51:43;102841.44;;;5.55;54.01
46756;BME280;32506;52.826;-1.192;2023-02-28T01:54:29;102845.78;;;5.57;53.68
46756;BME280;32506;52.826;-1.192;2023-02-28T01:56:58;102844.09;;;5.55;54.22
46756;BME280;32506;52.826;-1.192;2023-02-28T01:59:34;102843.25;;;5.55;54.46
46756;BME280;32506;52.826;-1.192;2023-02-28T02:02:01;102834.44;;;5.54;54.57
46756;BME280;32506;52.826;-1.192;2023-02-28T02:04:37;102843.25;;;5.55;54.32
46756;BME280;32506;52.826;-1.192;2023-02-28T02:07:04;102839.75;;;5.54;54.51
46756;BME280;32506;52.826;-1.192;2023-02-28T02:09:30;102845.03;;;5.54;54.10
46756;BME280;32506;52.826;-1.192;2023-02-28T02:11:55;102845.91;;;5.55;54.42
46756;BME280;32506;52.826;-1.192;2023-02-28T02:14:48;102851.09;;;5.57;54.78
46756;BME280;32506;52.826;-1.192;2023-02-28T02:17:34;102843.25;;;5.55;54.32
46756;BME280;32506;52.826;-1.192;2023-02-28T02:20:22;102844.09;;;5.55;54.51
46756;BME280;32506;52.826;-1.192;2023-02-28T02:25:45;102843.25;;;5.55;54.87
46756;BME280;32506;52.826;-1.192;2023-02-28T02:28:36;102839.75;;;5.54;54.39
46756;BME280;32506;52.826;-1.192;2023-02-28T02:36:45;102831.06;;;5.52;54.49
46756;BME280;32506;52.826;-1.192;2023-02-28T02:42:09;102830.13;;;5.53;54.58
46756;BME280;32506;52.826;-1.192;2023-02-28T02:44:43;102831.22;;;5.51;54.62
46756;BME280;32506;52.826;-1.192;2023-02-28T02:47:14;102829.50;;;5.50;54.34
46756;BME280;32506;52.826;-1.192;2023-02-28T02:49:45;102834.00;;;5.49;54.17
46756;BME280;32506;52.826;-1.192;2023-02-28T02:52:14;102829.63;;;5.48;54.27
46756;BME280;32506;52.826;-1.192;2023-02-28T02:54:44;102824.47;;;5.47;54.10
46756;BME280;32506;52.826;-1.192;2023-02-28T02:57:15;102827.94;;;5.47;54.21
46756;BME280;32506;52.826;-1.192;2023-02-28T02:59:45;102832.44;;;5.47;54.47
46756;BME280;32506;52.826;-1.192;2023-02-28T03:02:12;102829.91;;;5.45;54.30
46756;BME280;32506;52.826;-1.192;2023-02-28T03:04:45;102822.91;;;5.44;54.16
46756;BME280;32506;52.826;-1.192;2023-02-28T03:07:12;102820.38;;;5.43;53.80
46756;BME280;32506;52.826;-1.192;2023-02-28T03:09:38;102827.47;;;5.42;54.34
46756;BME280;32506;52.826;-1.192;2023-02-28T03:12:08;102820.47;;;5.41;54.06
46756;BME280;32506;52.826;-1.192;2023-02-28T03:20:03;102821.59;;;5.38;54.21
46756;BME280;32506;52.826;-1.192;2023-02-28T03:25:51;102825.44;;;5.34;54.40
46756;BME280;32506;52.826;-1.192;2023-02-28T03:33:33;102830.03;;;5.32;54.34
46756;BME280;32506;52.826;-1.192;2023-02-28T03:36:21;102837.16;;;5.32;54.34
46756;BME280;32506;52.826;-1.192;2023-02-28T03:38:57;102838.94;;;5.31;54.46
46756;BME280;32506;52.826;-1.192;2023-02-28T03:41:33;102835.47;;;5.31;54.67
46756;BME280;32506;52.826;-1.192;2023-02-28T03:44:09;102836.41;;;5.30;54.44
46756;BME280;32506;52.826;-1.192;2023-02-28T03:46:44;102838.25;;;5.29;54.36
46756;BME280;32506;52.826;-1.192;2023-02-28T03:49:25;102829.44;;;5.29;54.82
46756;BME280;32506;52.826;-1.192;2023-02-28T03:51:54;102837.38;;;5.29;54.59
46756;BME280;32506;52.826;-1.192;2023-02-28T03:54:35;102825.94;;;5.28;54.42
46756;BME280;32506;52.826;-1.192;2023-02-28T03:59:48;102832.06;;;5.29;54.41
46756;BME280;32506;52.826;-1.192;2023-02-28T04:02:18;102828.59;;;5.28;54.62
46756;BME280;32506;52.826;-1.192;2023-02-28T04:04:43;102834.03;;;5.27;54.54
46756;BME280;32506;52.826;-1.192;2023-02-28T04:07:11;102839.19;;;5.28;54.71
46756;BME280;32506;52.826;-1.192;2023-02-28T04:09:37;102837.50;;;5.27;54.31
46756;BME280;32506;52.826;-1.192;2023-02-28T04:12:02;102837.50;;;5.27;54.52
46756;BME280;32506;52.826;-1.192;2023-02-28T04:14:28;102842.81;;;5.27;54.31
46756;BME280;32506;52.826;-1.192;2023-02-28T04:16:54;102841.97;;;5.27;54.70
46756;BME280;32506;52.826;-1.192;2023-02-28T04:19:19;102839.31;;;5.27;54.43
46756;BME280;32506;52.826;-1.192;2023-02-28T04:21:49;102841.03;;;5.28;54.43
46756;BME280;32506;52.826;-1.192;2023-02-28T04:24:21;102845.47;;;5.27;54.37
46756;BME280;32506;52.826;-1.192;2023-02-28T04:26:49;102849.94;;;5.27;54.81
46756;BME280;32506;52.826;-1.192;2023-02-28T04:29:24;102851.72;;;5.26;55.00
46756;BME280;32506;52.826;-1.192;2023-02-28T04:31:50;102853.41;;;5.27;54.44
46756;BME280;32506;52.826;-1.192;2023-02-28T04:34:18;102848.97;;;5.28;54.95
46756;BME280;32506;52.826;-1.192;2023-02-28T04:36:44;102849.94;;;5.27;54.45
46756;BME280;32506;52.826;-1.192;2023-02-28T04:39:11;102855.94;;;5.29;54.88
46756;BME280;32506;52.826;-1.192;2023-02-28T04:41:36;102847.97;;;5.29;54.63
46756;BME280;32506;52.826;-1.192;2023-02-28T04:44:02;102849.81;;;5.28;55.05
46756;BME280;32506;52.826;-1.192;2023-02-28T04:46:27;102842.69;;;5.29;54.82
46756;BME280;32506;52.826;-1.192;2023-02-28T04:48:53;102845.34;;;5.29;54.92
46756;BME280;32506;52.826;-1.192;2023-02-28T04:51:19;102851.50;;;5.29;54.61
46756;BME280;32506;52.826;-1.192;2023-02-28T04:53:46;102862.94;;;5.30;54.72
46756;BME280;32506;52.826;-1.192;2023-02-28T04:56:13;102858.47;;;5.30;55.04
46756;BME280;32506;52.826;-1.192;2023-02-28T04:58:39;102859.44;;;5.29;54.95
46756;BME280;32506;52.826;-1.192;2023-02-28T05:01:24;102856.69;;;5.31;54.60
46756;BME280;32506;52.826;-1.192;2023-02-28T05:03:51;102859.31;;;5.31;55.21
46756;BME280;32506;52.826;-1.192;2023-02-28T05:06:16;102852.34;;;5.30;55.13
46756;BME280;32506;52.826;-1.192;2023-02-28T05:08:43;102849.56;;;5.31;54.93
46756;BME280;32506;52.826;-1.192;2023-02-28T05:11:29;102844.25;;;5.31;54.69
46756;BME280;32506;52.826;-1.192;2023-02-28T05:13:59;102850.50;;;5.30;55.27
46756;BME280;32506;52.826;-1.192;2023-02-28T05:16:24;102847.75;;;5.32;55.14
46756;BME280;32506;52.826;-1.192;2023-02-28T05:18:50;102854.84;;;5.31;54.51
46756;BME280;32506;52.826;-1.192;2023-02-28T05:21:28;102856.53;;;5.32;55.28
46756;BME280;32506;52.826;-1.192;2023-02-28T05:23:56;102846.91;;;5.31;55.22
46756;BME280;32506;52.826;-1.192;2023-02-28T05:26:22;102845.09;;;5.32;55.43
46756;BME280;32506;52.826;-1.192;2023-02-28T05:28:49;102848.72;;;5.31;54.58
46756;BME280;32506;52.826;-1.192;2023-02-28T05:31:14;102853.06;;;5.32;54.58
46756;BME280;32506;52.826;-1.192;2023-02-28T05:33:40;102858.25;;;5.33;54.81
46756;BME280;32506;52.826;-1.192;2023-02-28T05:36:06;102857.38;;;5.33;55.04
46756;BME280;32506;52.826;-1.192;2023-02-28T05:38:32;102855.59;;;5.33;54.51
46756;BME280;32506;52.826;-1.192;2023-02-28T05:40:57;102859.06;;;5.34;55.51
46756;BME280;32506;52.826;-1.192;2023-02-28T05:43:23;102856.41;;;5.34;55.41
46756;BME280;32506;52.826;-1.192;2023-02-28T05:45:48;102857.25;;;5.34;55.06
46756;BME280;32506;52.826;-1.192;2023-02-28T05:48:14;102859.06;;;5.34;54.79
46756;BME280;32506;52.826;-1.192;2023-02-28T05:50:39;102854.59;;;5.34;54.82
46756;BME280;32506;52.826;-1.192;2023-02-28T05:53:05;102859.81;;;5.36;54.81
46756;BME280;32506;52.826;-1.192;2023-02-28T05:55:31;102860.78;;;5.35;54.89
46756;BME280;32506;52.826;-1.192;2023-02-28T05:57:56;102858.00;;;5.36;54.67
46756;BME280;32506;52.826;-1.192;2023-02-28T06:00:22;102859.81;;;5.36;54.96
46756;BME280;32506;52.826;-1.192;2023-02-28T06:02:48;102856.28;;;5.35;55.36
46756;BME280;32506;52.826;-1.192;2023-02-28T06:05:15;102853.50;;;5.37;54.60
46756;BME280;32506;52.826;-1.192;2023-02-28T06:07:42;102857.03;;;5.37;54.96
46756;BME280;32506;52.826;-1.192;2023-02-28T06:10:09;102856.06;;;5.38;54.94
46756;BME280;32506;52.826;-1.192;2023-02-28T06:12:35;102855.22;;;5.38;54.71
46756;BME280;32506;52.826;-1.192;2023-02-28T06:15:00;102860.38;;;5.40;55.11
46756;BME280;32506;52.826;-1.192;2023-02-28T06:17:26;102862.22;;;5.39;55.10
46756;BME280;32506;52.826;-1.192;2023-02-28T06:19:51;102856.91;;;5.39;54.77
46756;BME280;32506;52.826;-1.192;2023-02-28T06:22:17;102868.34;;;5.40;54.67
46756;BME280;32506;52.826;-1.192;2023-02-28T06:24:42;102853.28;;;5.40;54.76
46756;BME280;32506;52.826;-1.192;2023-02-28T06:27:08;102864.72;;;5.41;54.82
46756;BME280;32506;52.826;-1.192;2023-02-28T06:29:34;102862.06;;;5.41;54.62
46756;BME280;32506;52.826;-1.192;2023-02-28T06:32:00;102865.56;;;5.41;54.62
46756;BME280;32506;52.826;-1.192;2023-02-28T06:34:25;102861.94;;;5.42;54.84
46756;BME280;32506;52.826;-1.192;2023-02-28T06:36:52;102859.31;;;5.42;55.00
46756;BME280;32506;52.826;-1.192;2023-02-28T06:39:17;102862.81;;;5.43;54.75
46756;BME280;32506;52.826;-1.192;2023-02-28T06:41:43;102861.81;;;5.44;54.89
46756;BME280;32506;52.826;-1.192;2023-02-28T06:44:17;102862.69;;;5.44;55.11
46756;BME280;32506;52.826;-1.192;2023-02-28T06:46:44;102866.16;;;5.45;55.38
46756;BME280;32506;52.826;-1.192;2023-02-28T06:49:10;102869.69;;;5.45;54.88
46756;BME280;32506;52.826;-1.192;2023-02-28T06:51:40;102872.34;;;5.45;55.44
46756;BME280;32506;52.826;-1.192;2023-02-28T06:54:07;102876.66;;;5.46;54.90
46756;BME280;32506;52.826;-1.192;2023-02-28T06:56:35;102875.81;;;5.46;55.31
46756;BME280;32506;52.826;-1.192;2023-02-28T06:59:01;102879.19;;;5.48;55.03
46756;BME280;32506;52.826;-1.192;2023-02-28T07:01:26;102878.34;;;5.47;55.57
46756;BME280;32506;52.826;-1.192;2023-02-28T07:03:53;102874.72;;;5.48;54.88
46756;BME280;32506;52.826;-1.192;2023-02-28T07:06:20;102878.22;;;5.49;55.28
46756;BME280;32506;52.826;-1.192;2023-02-28T07:08:48;102873.78;;;5.49;55.05
46756;BME280;32506;52.826;-1.192;2023-02-28T07:11:14;102883.41;;;5.50;55.51
46756;BME280;32506;52.826;-1.192;2023-02-28T07:13:39;102878.09;;;5.50;55.16
46756;BME280;32506;52.826;-1.192;2023-02-28T07:16:07;102878.09;;;5.50;55.07
46756;BME280;32506;52.826;-1.192;2023-02-28T07:18:34;102884.25;;;5.51;55.39
46756;BME280;32506;52.826;-1.192;2023-02-28T07:21:04;102889.31;;;5.54;54.83
46756;BME280;32506;52.826;-1.192;2023-02-28T07:23:30;102889.31;;;5.54;55.42
46756;BME280;32506;52.826;-1.192;2023-02-28T07:25:56;102890.13;;;5.54;55.12
46756;BME280;32506;52.826;-1.192;2023-02-28T07:28:22;102893.66;;;5.55;55.33
46756;BME280;32506;52.826;-1.192;2023-02-28T07:30:47;102888.22;;;5.57;55.31
46756;BME280;32506;52.826;-1.192;2023-02-28T07:33:14;102887.41;;;5.56;55.08
46756;BME280;32506;52.826;-1.192;2023-02-28T07:35:40;102883.75;;;5.57;55.39
46756;BME280;32506;52.826;-1.192;2023-02-28T07:38:05;102883.66;;;5.59;55.18
46756;BME280;32506;52.826;-1.192;2023-02-28T07:40:33;102887.00;;;5.61;55.56
46756;BME280;32506;52.826;-1.192;2023-02-28T07:43:00;102888.69;;;5.62;55.42
46756;BME280;32506;52.826;-1.192;2023-02-28T07:45:26;102890.41;;;5.63;55.64
46756;BME280;32506;52.826;-1.192;2023-02-28T07:47:51;102889.41;;;5.64;55.63
46756;BME280;32506;52.826;-1.192;2023-02-28T07:50:17;102889.31;;;5.65;55.89
46756;BME280;32506;52.826;-1.192;2023-02-28T07:52:42;102895.31;;;5.67;55.68
46756;BME280;32506;52.826;-1.192;2023-02-28T07:55:09;102897.97;;;5.67;55.86
46756;BME280;32506;52.826;-1.192;2023-02-28T07:57:34;102899.53;;;5.70;55.86
46756;BME280;32506;52.826;-1.192;2023-02-28T08:00:00;102895.06;;;5.70;56.37
46756;BME280;32506;52.826;-1.192;2023-02-28T08:02:26;102902.06;;;5.71;55.91
46756;BME280;32506;52.826;-1.192;2023-02-28T08:04:52;102904.59;;;5.73;56.05
46756;BME280;32506;52.826;-1.192;2023-02-28T08:07:17;102900.00;;;5.75;55.92
46756;BME280;32506;52.826;-1.192;2023-02-28T08:09:44;102908.81;;;5.76;55.88
46756;BME280;32506;52.826;-1.192;2023-02-28T08:12:10;102913.97;;;5.77;56.21
46756;BME280;32506;52.826;-1.192;2023-02-28T08:14:36;102915.69;;;5.78;56.11
46756;BME280;32506;52.826;-1.192;2023-02-28T08:17:02;102911.19;;;5.79;56.11
46756;BME280;32506;52.826;-1.192;2023-02-28T08:19:28;102899.63;;;5.80;56.39
46756;BME280;32506;52.826;-1.192;2023-02-28T08:21:54;102903.84;;;5.82;56.29
46756;BME280;32506;52.826;-1.192;2023-02-28T08:24:20;102902.88;;;5.83;56.59
46756;BME280;32506;52.826;-1.192;2023-02-28T08:26:45;102903.72;;;5.84;56.37
46756;BME280;32506;52.826;-1.192;2023-02-28T08:29:11;102900.94;;;5.85;55.93
46756;BME280;32506;52.826;-1.192;2023-02-28T08:31:37;102897.31;;;5.86;56.49
46756;BME280;32506;52.826;-1.192;2023-02-28T08:34:07;102906.00;;;5.88;56.38
46756;BME280;32506;52.826;-1.192;2023-02-28T08:36:33;102890.91;;;5.89;56.26
46756;BME280;32506;52.826;-1.192;2023-02-28T08:38:58;102893.56;;;5.89;56.54
46756;BME280;32506;52.826;-1.192;2023-02-28T08:41:25;102898.63;;;5.92;56.72
46756;BME280;32506;52.826;-1.192;2023-02-28T08:43:51;102900.31;;;5.93;56.84
46756;BME280;32506;52.826;-1.192;2023-02-28T08:46:16;102898.41;;;5.95;56.25
46756;BME280;32506;52.826;-1.192;2023-02-28T08:48:42;102894.78;;;5.96;56.19
46756;BME280;32506;52.826;-1.192;2023-02-28T08:51:15;102892.97;;;5.97;56.64
46756;BME280;32506;52.826;-1.192;2023-02-28T08:53:46;102893.59;;;6.00;56.57
46756;BME280;32506;52.826;-1.192;2023-02-28T08:56:16;102887.28;;;6.01;56.40
46756;BME280;32506;52.826;-1.192;2023-02-28T08:58:45;102892.50;;;6.03;56.63
46756;BME280;32506;52.826;-1.192;2023-02-28T09:01:14;102895.03;;;6.04;56.80
46756;BME280;32506;52.826;-1.192;2023-02-28T09:03:41;102896.59;;;6.07;56.71
46756;BME280;32506;52.826;-1.192;2023-02-28T09:06:08;102905.25;;;6.09;56.22
46756;BME280;32506;52.826;-1.192;2023-02-28T09:08:33;102894.50;;;6.11;56.71
46756;BME280;32506;52.826;-1.192;2023-02-28T09:10:59;102890.75;;;6.13;56.79
46756;BME280;32506;52.826;-1.192;2023-02-28T09:13:26;102893.28;;;6.15;56.71
46756;BME280;32506;52.826;-1.192;2023-02-28T09:15:52;102897.50;;;6.17;56.77
46756;BME280;32506;52.826;-1.192;2023-02-28T09:18:18;102897.25;;;6.20;57.00
46756;BME280;32506;52.826;-1.192;2023-02-28T09:20:44;102890.94;;;6.21;56.63
46756;BME280;32506;52.826;-1.192;2023-02-28T09:23:11;102899.53;;;6.25;56.84
46756;BME280;32506;52.826;-1.192;2023-02-28T09:25:37;102900.25;;;6.27;56.98
46756;BME280;32506;52.826;-1.192;2023-02-28T09:28:03;102900.81;;;6.31;57.27
46756;BME280;32506;52.826;-1.192;2023-02-28T09:30:30;102895.28;;;6.34;57.33
46756;BME280;32506;52.826;-1.192;2023-02-28T09:32:55;102901.28;;;6.36;57.13
46756;BME280;32506;52.826;-1.192;2023-02-28T09:35:22;102903.66;;;6.39;57.50
46756;BME280;32506;52.826;-1.192;2023-02-28T09:37:51;102899.78;;;6.43;57.81
46756;BME280;32506;52.826;-1.192;2023-02-28T09:40:20;102899.69;;;6.45;57.44
46756;BME280;32506;52.826;-1.192;2023-02-28T09:42:49;102897.59;;;6.48;57.25
46756;BME280;32506;52.826;-1.192;2023-02-28T09:45:24;102899.00;;;6.52;58.01
46756;BME280;32506;52.826;-1.192;2023-02-28T09:47:52;102895.25;;;6.55;57.50
46756;BME280;32506;52.826;-1.192;2023-02-28T09:50:35;102901.03;;;6.60;57.75
46756;BME280;32506;52.826;-1.192;2023-02-28T09:53:14;102902.59;;;6.63;58.15
46756;BME280;32506;52.826;-1.192;2023-02-28T09:55:50;102897.75;;;6.68;58.28
46756;BME280;32506;52.826;-1.192;2023-02-28T09:58:53;102906.16;;;6.73;58.91
46756;BME280;32506;52.826;-1.192;2023-02-28T10:04:41;102907.19;;;6.82;59.09
46756;BME280;32506;52.826;-1.192;2023-02-28T10:10:39;102905.28;;;6.94;59.47
46756;BME280;32506;52.826;-1.192;2023-02-28T10:13:27;102899.59;;;6.98;59.73
46756;BME280;32506;52.826;-1.192;2023-02-28T10:16:02;102913.44;;;7.02;59.17
46756;BME280;32506;52.826;-1.192;2023-02-28T10:18:38;102905.22;;;7.05;59.51
46756;BME280;32506;52.826;-1.192;2023-02-28T10:21:15;102903.00;;;7.10;59.50
46756;BME280;32506;52.826;-1.192;2023-02-28T10:23:43;102906.97;;;7.16;59.52
46756;BME280;32506;52.826;-1.192;2023-02-28T10:26:16;102905.84;;;7.18;59.60
46756;BME280;32506;52.826;-1.192;2023-02-28T10:28:42;102902.78;;;7.23;59.36
46756;BME280;32506;52.826;-1.192;2023-02-28T10:31:12;102906.13;;;7.25;59.47
46756;BME280;32506;52.826;-1.192;2023-02-28T10:33:38;102895.25;;;7.28;59.43
46756;BME280;32506;52.826;-1.192;2023-02-28T10:36:05;102901.97;;;7.32;59.05
46756;BME280;32506;52.826;-1.192;2023-02-28T10:38:37;102899.19;;;7.34;59.04
46756;BME280;32506;52.826;-1.192;2023-02-28T10:41:30;102899.63;;;7.39;59.15
46756;BME280;32506;52.826;-1.192;2023-02-28T10:44:28;102898.38;;;7.43;59.68
46756;BME280;32506;52.826;-1.192;2023-02-28T10:46:54;102892.91;;;7.45;59.18
46756;BME280;32506;52.826;-1.192;2023-02-28T10:49:23;102896.16;;;7.48;59.08
46756;BME280;32506;52.826;-1.192;2023-02-28T10:51:54;102891.53;;;7.50;59.27
46756;BME280;32506;52.826;-1.192;2023-02-28T10:54:29;102894.75;;;7.54;59.32
46756;BME280;32506;52.826;-1.192;2023-02-28T10:59:33;102887.34;;;7.58;58.92
46756;BME280;32506;52.826;-1.192;2023-02-28T11:01:59;102892.41;;;7.61;58.80
46756;BME280;32506;52.826;-1.192;2023-02-28T11:06:58;102887.50;;;7.66;59.20
46756;BME280;32506;52.826;-1.192;2023-02-28T11:09:30;102889.88;;;7.69;58.78
46756;BME280;32506;52.826;-1.192;2023-02-28T11:11:59;102894.94;;;7.72;59.60
46756;BME280;32506;52.826;-1.192;2023-02-28T11:14:28;102890.19;;;7.76;59.06
46756;BME280;32506;52.826;-1.192;2023-02-28T11:16:58;102891.72;;;7.78;59.66
46756;BME280;32506;52.826;-1.192;2023-02-28T11:19:29;102887.97;;;7.81;59.23
46756;BME280;32506;52.826;-1.192;2023-02-28T11:22:03;102877.88;;;7.84;59.23
46756;BME280;32506;52.826;-1.192;2023-02-28T11:24:36;102883.91;;;7.86;59.25
46756;BME280;32506;52.826;-1.192;2023-02-28T11:27:05;102888.94;;;7.89;59.03
46756;BME280;32506;52.826;-1.192;2023-02-28T11:29:33;102887.00;;;7.92;59.23
46756;BME280;32506;52.826;-1.192;2023-02-28T11:32:20;102888.41;;;7.96;59.35
46756;BME280;32506;52.826;-1.192;2023-02-28T11:35:00;102884.75;;;7.97;59.25
46756;BME280;32506;52.826;-1.192;2023-02-28T11:37:27;102882.66;;;8.00;58.90
46756;BME280;32506;52.826;-1.192;2023-02-28T11:39:53;102870.88;;;8.03;59.60
46756;BME280;32506;52.826;-1.192;2023-02-28T11:53:55;102859.66;;;8.19;59.76
46756;BME280;32506;52.826;-1.192;2023-02-28T11:56:47;102856.72;;;8.22;59.63
46756;BME280;32506;52.826;-1.192;2023-02-28T12:05:08;102848.56;;;8.33;60.01
46756;BME280;32506;52.826;-1.192;2023-02-28T12:13:21;102834.25;;;8.44;59.94
46756;BME280;32506;52.826;-1.192;2023-02-28T12:21:14;102830.59;;;8.55;59.97
46756;BME280;32506;52.826;-1.192;2023-02-28T12:32:20;102820.31;;;8.70;60.27
46756;BME280;32506;52.826;-1.192;2023-02-28T12:34:56;102815.53;;;8.73;60.36
46756;BME280;32506;52.826;-1.192;2023-02-28T12:38:04;102806.25;;;8.78;59.99
46756;BME280;32506;52.826;-1.192;2023-02-28T12:40:23;102809.47;;;8.81;60.23
46756;BME280;32506;52.826;-1.192;2023-02-28T12:42:55;102808.06;;;8.87;60.66
46756;BME280;32506;52.826;-1.192;2023-02-28T12:45:24;102805.78;;;8.92;60.58
46756;BME280;32506;52.826;-1.192;2023-02-28T12:48:00;102798.03;;;8.99;61.14
46756;BME280;32506;52.826;-1.192;2023-02-28T12:50:28;102794.75;;;9.05;61.39
46756;BME280;32506;52.826;-1.192;2023-02-28T12:55:56;102785.84;;;9.24;61.37
46756;BME280;32506;52.826;-1.192;2023-02-28T13:06:54;102766.09;;;9.53;61.18
46756;BME280;32506;52.826;-1.192;2023-02-28T13:09:25;102768.84;;;9.61;61.24
46756;BME280;32506;52.826;-1.192;2023-02-28T13:11:54;102771.06;;;9.66;61.05
46756;BME280;32506;52.826;-1.192;2023-02-28T13:14:36;102768.78;;;9.71;60.98
46756;BME280;32506;52.826;-1.192;2023-02-28T13:25:01;102764.88;;;9.83;60.22
46756;BME280;32506;52.826;-1.192;2023-02-28T13:27:41;102774.56;;;9.84;60.26
46756;BME280;32506;52.826;-1.192;2023-02-28T13:34:20;102756.38;;;9.88;59.74
46756;BME280;32506;52.826;-1.192;2023-02-28T13:38:55;102756.22;;;9.89;59.29
46756;BME280;32506;52.826;-1.192;2023-02-28T14:05:29;102738.31;;;10.08;59.00
46756;BME280;32506;52.826;-1.192;2023-02-28T14:07:59;102734.84;;;10.07;58.99
46756;BME280;32506;52.826;-1.192;2023-02-28T14:10:46;102740.84;;;10.10;58.89
46756;BME280;32506;52.826;-1.192;2023-02-28T14:16:00;102740.00;;;10.09;58.80
46756;BME280;32506;52.826;-1.192;2023-02-28T14:18:36;102737.34;;;10.09;58.47
46756;BME280;32506;52.826;-1.192;2023-02-28T14:37:39;102740.34;;;10.06;58.27
46756;BME280;32506;52.826;-1.192;2023-02-28T14:40:17;102733.31;;;10.05;58.48
46756;BME280;32506;52.826;-1.192;2023-02-28T14:42:57;102729.94;;;10.03;58.31
46756;BME280;32506;52.826;-1.192;2023-02-28T14:45:22;102725.44;;;10.03;58.37
46756;BME280;32506;52.826;-1.192;2023-02-28T14:47:52;102718.44;;;10.02;58.33
46756;BME280;32506;52.826;-1.192;2023-02-28T14:50:25;102716.91;;;10.00;58.17
46756;BME280;32506;52.826;-1.192;2023-02-28T14:52:55;102726.59;;;10.01;58.24
46756;BME280;32506;52.826;-1.192;2023-02-28T14:55:28;102726.75;;;9.99;58.02
46756;BME280;32506;52.826;-1.192;2023-02-28T14:57:57;102721.59;;;9.98;58.15
46756;BME280;32506;52.826;-1.192;2023-02-28T15:00:28;102715.53;;;9.96;57.98
46756;BME280;32506;52.826;-1.192;2023-02-28T15:02:58;102710.38;;;9.94;58.06
46756;BME280;32506;52.826;-1.192;2023-02-28T15:05:32;102716.69;;;9.93;58.02
46756;BME280;32506;52.826;-1.192;2023-02-28T15:10:33;102704.47;;;9.90;58.05
46756;BME280;32506;52.826;-1.192;2023-02-28T15:13:01;102695.81;;;9.88;57.98
46756;BME280;32506;52.826;-1.192;2023-02-28T15:15:56;102695.94;;;9.87;58.23
46756;BME280;32506;52.826;-1.192;2023-02-28T15:18:22;102691.44;;;9.87;58.29
46756;BME280;32506;52.826;-1.192;2023-02-28T15:20:50;102690.09;;;9.83;57.97
46756;BME280;32506;52.826;-1.192;2023-02-28T15:23:16;102681.38;;;9.81;57.91
46756;BME280;32506;52.826;-1.192;2023-02-28T15:25:44;102687.72;;;9.80;58.03
46756;BME280;32506;52.826;-1.192;2023-02-28T15:28:14;102683.38;;;9.79;58.13
46756;BME280;32506;52.826;-1.192;2023-02-28T15:30:51;102677.50;;;9.76;58.23
46756;BME280;32506;52.826;-1.192;2023-02-28T15:33:20;102688.34;;;9.74;58.08